createdAt,value
2022-12-23T00:01:52.536Z,99015.46
2022-12-23T00:04:19.645Z,99013.73
2022-12-23T00:07:07.182Z,99008.33
2022-12-23T00:09:34.642Z,99014.77
2022-12-23T00:12:20.540Z,99014.95
2022-12-23T00:15:05.978Z,99016.15
2022-12-23T00:17:40.651Z,99018.07
2022-12-23T00:20:12.319Z,99008.33
2022-12-23T00:22:59.083Z,99009.04
2022-12-23T00:25:43.353Z,99008.67
2022-12-23T00:28:27.809Z,99005.56
2022-12-23T00:31:06.272Z,99000.86
2022-12-23T00:33:35.620Z,98994.79
2022-12-23T00:36:22.928Z,98996.70
2022-12-23T00:39:37.832Z,98999.13
2022-12-23T00:42:23.539Z,99003.64
2022-12-23T00:44:50.439Z,99007.63
2022-12-23T00:47:35.940Z,99001.90
2022-12-23T00:50:02.966Z,99001.04
2022-12-23T00:52:29.861Z,99000.16
2022-12-23T00:58:12.817Z,98996.17
2022-12-23T01:01:02.896Z,98993.05
2022-12-23T01:03:52.050Z,98985.22
2022-12-23T01:06:19.705Z,98984.03
2022-12-23T01:08:46.517Z,98987.15
2022-12-23T01:11:13.228Z,98982.81
2022-12-23T01:13:39.975Z,98979.85
2022-12-23T01:16:16.895Z,98973.24
2022-12-23T01:18:49.207Z,98973.43
2022-12-23T01:21:16.618Z,98969.44
2022-12-23T01:23:44.026Z,98973.44
2022-12-23T01:26:11.425Z,98964.05
2022-12-23T01:28:38.488Z,98967.00
2022-12-23T01:31:10.007Z,98969.77
2022-12-23T01:33:37.301Z,98969.96
2022-12-23T01:36:06.866Z,98973.95
2022-12-23T01:38:35.236Z,98967.69
2022-12-23T01:41:02.578Z,98965.78
2022-12-23T01:43:51.244Z,98960.57
2022-12-23T01:46:23.386Z,98968.05
2022-12-23T01:48:53.251Z,98967.70
2022-12-23T01:51:28.505Z,98978.45
2022-12-23T01:54:00.708Z,98983.85
2022-12-23T01:56:35.138Z,98983.84
2022-12-23T01:59:32.032Z,98985.58
2022-12-23T02:02:18.258Z,98981.58
2022-12-23T02:04:46.457Z,98990.11
2022-12-23T02:07:32.572Z,98990.08
2022-12-23T02:09:59.404Z,98986.80
2022-12-23T02:12:35.135Z,98986.27
2022-12-23T02:15:47.966Z,98979.84
2022-12-23T02:18:29.900Z,98979.13
2022-12-23T02:21:16.528Z,98982.43
2022-12-23T02:24:14.338Z,98982.23
2022-12-23T02:26:53.860Z,98987.63
2022-12-23T02:29:29.790Z,98983.27
2022-12-23T02:32:16.267Z,98989.19
2022-12-23T02:35:08.808Z,98983.63
2022-12-23T02:38:01.955Z,98981.03
2022-12-23T02:41:14.965Z,98978.60
2022-12-23T02:43:47.125Z,98978.25
2022-12-23T02:46:19.686Z,98971.13
2022-12-23T02:48:54.345Z,98970.78
2022-12-23T02:51:27.105Z,98969.23
2022-12-23T02:54:00.589Z,98972.35
2022-12-23T02:56:31.894Z,98966.61
2022-12-23T02:59:08.168Z,98967.84
2022-12-23T03:01:36.826Z,98965.58
2022-12-23T03:04:06.669Z,98965.06
2022-12-23T03:06:42.721Z,98964.89
2022-12-23T03:09:21.170Z,98967.49
2022-12-23T03:12:01.731Z,98970.79
2022-12-23T03:14:35.859Z,98968.70
2022-12-23T03:17:11.614Z,98970.26
2022-12-23T03:19:53.847Z,98984.50
2022-12-23T03:22:37.248Z,98975.30
2022-12-23T03:25:40.057Z,98975.11
2022-12-23T03:28:23.806Z,98967.83
2022-12-23T03:30:54.585Z,98963.66
2022-12-23T03:33:47.357Z,98960.02
2022-12-23T03:36:28.063Z,98961.05
2022-12-23T03:38:56.520Z,98963.48
2022-12-23T03:41:30.119Z,98963.14
2022-12-23T03:44:11.498Z,98964.53
2022-12-23T03:46:49.859Z,98966.78
2022-12-23T03:49:25.573Z,98960.54
2022-12-23T03:51:59.279Z,98959.15
2022-12-23T03:54:33.388Z,98969.39
2022-12-23T03:57:04.929Z,98964.02
2022-12-23T03:59:36.002Z,98962.27
2022-12-23T04:02:12.058Z,98964.89
2022-12-23T04:04:50.117Z,98961.58
2022-12-23T04:07:38.983Z,98963.15
2022-12-23T04:10:07.832Z,98956.02
2022-12-23T04:12:35.642Z,98957.06
2022-12-23T04:15:04.931Z,98960.71
2022-12-23T04:17:36.171Z,98953.59
2022-12-23T04:20:03.560Z,98951.16
2022-12-23T04:22:30.311Z,98946.13
2022-12-23T04:24:57.114Z,98946.30
2022-12-23T04:27:23.857Z,98945.61
2022-12-23T04:29:50.535Z,98946.46
2022-12-23T04:32:17.955Z,98947.33
2022-12-23T04:34:44.668Z,98943.70
2022-12-23T04:37:11.391Z,98938.83
2022-12-23T04:39:38.097Z,98930.34
2022-12-23T04:42:05.016Z,98922.85
2022-12-23T04:44:31.762Z,98926.33
2022-12-23T04:46:58.540Z,98923.38
2022-12-23T04:49:25.445Z,98925.98
2022-12-23T04:51:52.131Z,98929.46
2022-12-23T04:54:19.011Z,98930.15
2022-12-23T04:56:45.785Z,98932.23
2022-12-23T04:59:12.738Z,98932.59
2022-12-23T05:01:41.506Z,98936.05
2022-12-23T05:04:09.380Z,98942.12
2022-12-23T05:06:36.942Z,98953.23
2022-12-23T05:09:04.533Z,98958.79
2022-12-23T05:11:35.922Z,98963.13
2022-12-23T05:14:05.566Z,98957.56
2022-12-23T05:16:33.392Z,98955.49
2022-12-23T05:19:00.223Z,98955.31
2022-12-23T05:21:27.006Z,98957.04
2022-12-23T05:23:54.479Z,98957.73
2022-12-23T05:26:23.701Z,98947.86
2022-12-23T05:28:50.466Z,98951.85
2022-12-23T05:31:18.008Z,98950.98
2022-12-23T05:33:44.750Z,98946.11
2022-12-23T05:36:12.048Z,98941.60
2022-12-23T05:38:39.245Z,98944.55
2022-12-23T05:41:06.254Z,98947.50
2022-12-23T05:43:33.292Z,98940.91
2022-12-23T05:46:00.213Z,98946.47
2022-12-23T05:48:27.003Z,98951.51
2022-12-23T05:50:53.839Z,98949.08
2022-12-23T05:53:20.960Z,98946.98
2022-12-23T05:55:48.043Z,98954.80
2022-12-23T05:58:15.253Z,98957.76
2022-12-23T06:00:42.676Z,98956.36
2022-12-23T06:03:10.238Z,98963.83
2022-12-23T06:05:39.263Z,98957.23
2022-12-23T06:08:06.060Z,98958.27
2022-12-23T06:10:32.822Z,98958.63
2022-12-23T06:12:59.595Z,98962.79
2022-12-23T06:15:26.445Z,98964.87
2022-12-23T06:17:55.268Z,98965.05
2022-12-23T06:20:22.150Z,98961.23
2022-12-23T06:22:49.103Z,98959.32
2022-12-23T06:25:16.033Z,98960.17
2022-12-23T06:27:42.812Z,98959.49
2022-12-23T06:30:09.887Z,98965.20
2022-12-23T06:32:38.795Z,98967.13
2022-12-23T06:35:07.731Z,98970.08
2022-12-23T06:37:34.654Z,98966.61
2022-12-23T06:40:01.678Z,98969.73
2022-12-23T06:42:28.430Z,98969.21
2022-12-23T06:44:55.147Z,98969.38
2022-12-23T06:47:21.911Z,98974.23
2022-12-23T06:49:48.710Z,98968.85
2022-12-23T06:52:15.517Z,98970.78
2022-12-23T06:54:42.243Z,98965.73
2022-12-23T06:57:09.131Z,98960.72
2022-12-23T06:59:35.823Z,98959.48
2022-12-23T07:02:03.022Z,98957.59
2022-12-23T07:04:29.909Z,98956.54
2022-12-23T07:06:57.759Z,98957.92
2022-12-23T07:09:24.577Z,98957.76
2022-12-23T07:11:51.866Z,98955.86
2022-12-23T07:14:18.722Z,98960.36
2022-12-23T07:16:45.794Z,98960.35
2022-12-23T07:19:12.783Z,98963.14
2022-12-23T07:21:39.572Z,98963.32
2022-12-23T07:24:06.844Z,98965.91
2022-12-23T07:26:33.666Z,98966.43
2022-12-23T07:29:01.608Z,98972.00
2022-12-23T07:31:28.786Z,98975.98
2022-12-23T07:33:55.583Z,98972.16
2022-12-23T07:36:22.295Z,98979.11
2022-12-23T07:38:51.334Z,98975.64
2022-12-23T07:41:18.826Z,98971.64
2022-12-23T07:43:46.076Z,98978.59
2022-12-23T07:46:12.943Z,98973.20
2022-12-23T07:48:41.326Z,98972.51
2022-12-23T07:51:08.909Z,98969.05
2022-12-23T07:53:35.637Z,98972.34
2022-12-23T07:56:02.456Z,98972.35
2022-12-23T07:58:29.335Z,98980.52
2022-12-23T08:01:05.736Z,98980.69
2022-12-23T08:03:32.782Z,98985.02
2022-12-23T08:06:08.571Z,98982.61
2022-12-23T08:08:35.472Z,98981.21
2022-12-23T08:11:05.692Z,98978.94
2022-12-23T08:13:36.521Z,98974.42
2022-12-23T08:16:05.382Z,98976.52
2022-12-23T08:18:34.823Z,98977.55
2022-12-23T08:21:14.257Z,98975.29
2022-12-23T08:23:43.024Z,98970.96
2022-12-23T08:26:12.828Z,98967.84
2022-12-23T08:28:40.710Z,98976.69
2022-12-23T08:31:13.664Z,98973.90
2022-12-23T08:33:43.093Z,98973.05
2022-12-23T08:36:17.655Z,98977.72
2022-12-23T08:38:51.513Z,98976.52
2022-12-23T08:41:22.764Z,98977.02
2022-12-23T08:43:49.681Z,98977.38
2022-12-23T08:46:17.375Z,98979.98
2022-12-23T08:48:49.185Z,98981.71
2022-12-23T08:51:19.171Z,98980.17
2022-12-23T08:53:47.175Z,98978.97
2022-12-23T08:56:21.263Z,98978.13
2022-12-23T08:58:52.169Z,98972.73
2022-12-23T09:01:21.712Z,98968.02
2022-12-23T09:03:48.543Z,98968.04
2022-12-23T09:06:26.549Z,98969.77
2022-12-23T09:08:56.075Z,98975.16
2022-12-23T09:11:25.584Z,98979.33
2022-12-23T09:13:53.752Z,98977.42
2022-12-23T09:16:22.148Z,98976.55
2022-12-23T09:18:48.896Z,98976.89
2022-12-23T09:21:18.392Z,98981.92
2022-12-23T09:23:45.461Z,98984.19
2022-12-23T09:26:22.281Z,98983.84
2022-12-23T09:28:49.595Z,98978.46
2022-12-23T09:31:18.057Z,98983.16
2022-12-23T09:33:50.514Z,98989.58
2022-12-23T09:36:18.506Z,98986.98
2022-12-23T09:38:46.082Z,98983.84
2022-12-23T09:41:15.954Z,98989.05
2022-12-23T09:43:42.593Z,98986.27
2022-12-23T09:46:18.687Z,98986.63
2022-12-23T09:48:55.689Z,98985.76
2022-12-23T09:51:23.270Z,98985.23
2022-12-23T09:54:04.621Z,98991.14
2022-12-23T09:56:50.828Z,98996.52
2022-12-23T09:59:27.126Z,99001.73
2022-12-23T10:02:14.363Z,99003.65
2022-12-23T10:04:53.345Z,99008.69
2022-12-23T10:07:26.018Z,99008.86
2022-12-23T10:09:55.795Z,99009.73
2022-12-23T10:12:35.862Z,99007.11
2022-12-23T10:15:19.802Z,99001.39
2022-12-23T10:17:50.964Z,99002.27
2022-12-23T10:20:29.569Z,99002.59
2022-12-23T10:22:58.509Z,99010.08
2022-12-23T10:25:36.811Z,99009.73
2022-12-23T10:28:03.646Z,99017.38
2022-12-23T10:30:57.455Z,99016.85
2022-12-23T10:33:22.529Z,99018.59
2022-12-23T10:36:13.410Z,99016.49
2022-12-23T10:39:30.317Z,99008.85
2022-12-23T10:42:58.313Z,99007.64
2022-12-23T10:45:33.733Z,99002.60
2022-12-23T10:48:14.708Z,99002.08
2022-12-23T10:50:53.246Z,98998.77
2022-12-23T10:53:45.978Z,99001.04
2022-12-23T10:56:13.374Z,99008.33
2022-12-23T10:58:50.099Z,99012.50
2022-12-23T11:01:33.999Z,99008.68
2022-12-23T11:04:13.192Z,99000.67
2022-12-23T11:06:43.721Z,99003.10
2022-12-23T11:09:18.562Z,98994.42
2022-12-23T11:12:03.828Z,98993.72
2022-12-23T11:14:32.309Z,98992.84
2022-12-23T11:16:59.010Z,98995.62
2022-12-23T11:19:26.127Z,98997.19
2022-12-23T11:21:58.567Z,99007.96
2022-12-23T11:24:33.647Z,99011.61
2022-12-23T11:27:07.226Z,99011.42
2022-12-23T11:29:39.097Z,99013.88
2022-12-23T11:32:22.036Z,99017.86
2022-12-23T11:34:50.326Z,99017.69
2022-12-23T11:37:43.466Z,99017.52
2022-12-23T11:40:21.759Z,99014.21
2022-12-23T11:42:55.104Z,99023.25
2022-12-23T11:45:25.654Z,99020.45
2022-12-23T11:47:52.518Z,99020.29
2022-12-23T11:50:30.956Z,99023.59
2022-12-23T11:53:11.794Z,99031.93
2022-12-23T11:55:59.599Z,99033.83
2022-12-23T11:58:28.380Z,99033.66
2022-12-23T12:00:58.577Z,99034.35
2022-12-23T12:03:34.166Z,99027.56
2022-12-23T12:06:04.537Z,99032.25
2022-12-23T12:08:37.144Z,99035.21
2022-12-23T12:11:14.786Z,99031.40
2022-12-23T12:13:44.500Z,99036.27
2022-12-23T12:16:32.868Z,99041.84
2022-12-23T12:19:49.275Z,99046.68
2022-12-23T12:22:43.875Z,99044.61
2022-12-23T12:25:16.933Z,99044.27
2022-12-23T12:27:52.043Z,99048.10
2022-12-23T12:30:20.491Z,99051.73
2022-12-23T12:33:00.417Z,99050.88
2022-12-23T12:35:35.247Z,99053.14
2022-12-23T12:38:27.099Z,99048.27
2022-12-23T12:41:12.477Z,99054.72
2022-12-23T12:43:50.598Z,99052.96
2022-12-23T12:46:30.921Z,99054.52
2022-12-23T12:49:11.538Z,99053.30
2022-12-23T12:51:46.316Z,99049.84
2022-12-23T12:54:34.727Z,99048.61
2022-12-23T12:57:03.498Z,99047.92
2022-12-23T12:59:38.310Z,99051.73
2022-12-23T13:02:22.463Z,99053.48
2022-12-23T13:05:31.008Z,99058.52
2022-12-23T13:08:34.325Z,99061.31
2022-12-23T13:11:12.671Z,99068.27
2022-12-23T13:13:46.968Z,99068.78
2022-12-23T13:16:19.301Z,99071.73
2022-12-23T13:19:19.458Z,99077.82
2022-12-23T13:22:06.731Z,99079.56
2022-12-23T13:24:43.955Z,99077.98
2022-12-23T13:27:18.363Z,99081.48
2022-12-23T13:29:57.952Z,99086.00
2022-12-23T13:32:59.255Z,99084.08
2022-12-23T13:35:40.920Z,99088.26
2022-12-23T13:38:15.594Z,99090.70
2022-12-23T13:40:48.297Z,99094.67
2022-12-23T13:43:19.903Z,99091.02
2022-12-23T13:45:48.163Z,99087.39
2022-12-23T13:48:24.316Z,99085.98
2022-12-23T13:51:15.577Z,99085.65
2022-12-23T13:53:46.861Z,99089.81
2022-12-23T13:56:41.672Z,99092.77
2022-12-23T13:59:10.928Z,99093.64
2022-12-23T14:01:40.865Z,99094.85
2022-12-23T14:04:30.705Z,99093.46
2022-12-23T14:07:21.603Z,99095.02
2022-12-23T14:09:56.384Z,99093.98
2022-12-23T14:12:34.912Z,99094.34
2022-12-23T14:15:07.600Z,99088.08
2022-12-23T14:18:24.799Z,99094.70
2022-12-23T14:21:09.709Z,99094.86
2022-12-23T14:23:39.413Z,99094.01
2022-12-23T14:26:16.803Z,99099.38
2022-12-23T14:28:58.919Z,99104.07
2022-12-23T14:31:40.862Z,99106.52
2022-12-23T14:34:17.984Z,99114.16
2022-12-23T14:37:26.690Z,99115.55
2022-12-23T14:39:53.797Z,99119.20
2022-12-23T14:42:42.305Z,99122.15
2022-12-23T14:45:35.499Z,99123.73
2022-12-23T14:48:41.149Z,99126.49
2022-12-23T14:51:08.119Z,99133.10
2022-12-23T14:53:54.126Z,99130.33
2022-12-23T14:56:25.428Z,99130.49
2022-12-23T14:58:55.009Z,99127.54
2022-12-23T15:01:30.686Z,99125.11
2022-12-23T15:04:01.543Z,99130.48
2022-12-23T15:06:37.420Z,99126.15
2022-12-23T15:09:07.031Z,99124.94
2022-12-23T15:11:35.969Z,99124.40
2022-12-23T15:14:09.333Z,99127.89
2022-12-23T15:16:39.801Z,99133.28
2022-12-23T15:19:23.239Z,99130.66
2022-12-23T15:21:59.684Z,99129.44
2022-12-23T15:25:15.421Z,99124.23
2022-12-23T15:27:46.527Z,99126.48
2022-12-23T15:30:29.654Z,99125.79
2022-12-23T15:33:34.807Z,99135.17
2022-12-23T15:36:11.071Z,99127.70
2022-12-23T15:38:40.696Z,99122.33
2022-12-23T15:50:32.192Z,99127.36
2022-12-23T15:53:24.587Z,99124.58
2022-12-23T16:01:00.452Z,99141.88
2022-12-23T16:26:05.345Z,99132.27
2022-12-23T17:20:26.664Z,99177.96
2022-12-23T17:22:59.147Z,99178.64
2022-12-23T17:25:26.805Z,99178.45
2022-12-23T17:28:10.127Z,99182.44
2022-12-23T17:31:31.630Z,99180.84
2022-12-23T17:34:35.736Z,99184.46
2022-12-23T17:37:19.179Z,99186.90
2022-12-23T17:39:47.328Z,99196.98
2022-12-23T17:42:25.834Z,99200.27
2022-12-23T17:44:53.482Z,99200.09
2022-12-23T17:48:02.842Z,99201.98
2022-12-23T18:03:32.407Z,99190.68
2022-12-23T18:13:39.186Z,99218.25
2022-12-23T18:17:03.951Z,99213.91
2022-12-23T18:20:14.421Z,99199.27
2022-12-23T18:23:13.185Z,99213.05
2022-12-23T18:26:33.495Z,99222.11
2022-12-23T18:33:37.326Z,99223.86
2022-12-23T18:50:18.052Z,99213.20
2022-12-23T18:53:35.358Z,99207.49
2022-12-23T18:56:41.194Z,99199.99
2022-12-23T18:59:29.698Z,99193.19
2022-12-23T19:02:53.115Z,99186.73
2022-12-23T19:05:32.910Z,99182.20
2022-12-23T19:09:10.349Z,99186.50
2022-12-23T19:40:21.289Z,99187.90
2022-12-23T19:42:58.823Z,99186.67
2022-12-23T20:05:54.861Z,99210.57
2022-12-23T20:13:45.947Z,99207.85
2022-12-23T20:21:26.055Z,99226.86
2022-12-23T20:46:33.327Z,99242.45
2022-12-23T20:49:17.543Z,99243.61
2022-12-23T20:57:08.952Z,99241.23
2022-12-23T21:00:00.020Z,99239.86
2022-12-23T21:15:37.349Z,99260.11
2022-12-23T21:21:19.154Z,99259.89
2022-12-23T21:21:44.289Z,99266.26
2022-12-23T21:24:14.973Z,99265.77
2022-12-23T21:26:55.512Z,99266.44
2022-12-23T21:29:24.859Z,99244.30
2022-12-23T21:32:17.248Z,99257.31
2022-12-23T21:34:52.211Z,99257.27
2022-12-23T21:38:09.075Z,99258.46
2022-12-23T21:42:07.013Z,99257.70
2022-12-23T21:45:07.459Z,99256.96
2022-12-23T21:47:53.257Z,99257.06
2022-12-23T21:50:54.214Z,99258.55
2022-12-23T22:01:38.322Z,99243.02
2022-12-23T22:08:23.344Z,99246.02
2022-12-23T22:15:33.107Z,99246.77
2022-12-23T22:22:29.288Z,99241.73
2022-12-23T22:25:29.693Z,99236.96
2022-12-23T22:28:21.304Z,99241.83
2022-12-23T22:34:48.375Z,99239.48
2022-12-23T22:44:13.161Z,99245.28
2022-12-23T22:46:40.581Z,99245.39
2022-12-23T22:49:07.551Z,99245.34
2022-12-23T22:51:34.228Z,99249.80
2022-12-23T22:54:45.619Z,99244.06
2022-12-23T22:57:40.630Z,99246.97
2022-12-23T23:00:12.468Z,99234.73
2022-12-23T23:02:40.359Z,99246.20
2022-12-23T23:05:12.656Z,99253.44
2022-12-23T23:07:41.793Z,99257.53
2022-12-23T23:10:09.414Z,99255.58
2022-12-23T23:12:43.644Z,99259.91
2022-12-23T23:15:25.853Z,99257.46
2022-12-23T23:17:56.141Z,99253.63
2022-12-23T23:20:25.509Z,99260.19
2022-12-23T23:22:52.516Z,99256.86
2022-12-23T23:25:30.118Z,99257.86
2022-12-23T23:28:05.941Z,99254.53
2022-12-23T23:31:44.413Z,99257.48
2022-12-23T23:34:19.192Z,99258.69
2022-12-23T23:36:46.097Z,99252.61
2022-12-23T23:39:14.813Z,99251.89
2022-12-23T23:41:46.502Z,99250.48
2022-12-23T23:44:14.099Z,99249.60
2022-12-23T23:46:45.863Z,99242.08
2022-12-23T23:49:14.161Z,99249.77
2022-12-23T23:51:41.607Z,99249.25
2022-12-23T23:54:09.458Z,99254.38
2022-12-23T23:56:39.730Z,99257.30
2022-12-23T23:59:08.122Z,99258.80
